createdAt,value
2022-09-26T00:01:11.811Z,4.80
2022-09-26T00:03:39.369Z,4.78
2022-09-26T00:06:08.201Z,5.20
2022-09-26T00:08:36.204Z,5.15
2022-09-26T00:11:05.705Z,5.55
2022-09-26T00:15:59.117Z,7.47
2022-09-26T00:18:25.714Z,5.30
2022-09-26T00:20:52.714Z,4.03
2022-09-26T00:23:19.357Z,4.53
2022-09-26T00:25:51.131Z,3.83
2022-09-26T00:28:18.898Z,3.40
2022-09-26T00:30:45.396Z,3.00
2022-09-26T00:33:11.964Z,3.00
2022-09-26T00:35:38.666Z,3.22
2022-09-26T00:38:05.774Z,3.30
2022-09-26T00:40:32.812Z,3.17
2022-09-26T00:42:59.401Z,3.58
2022-09-26T00:45:30.449Z,4.82
2022-09-26T00:47:59.569Z,5.43
2022-09-26T00:50:36.562Z,5.32
2022-09-26T00:53:09.611Z,6.57
2022-09-26T00:55:45.122Z,6.30
2022-09-26T00:58:20.981Z,4.57
2022-09-26T01:00:49.722Z,4.00
2022-09-26T01:03:18.321Z,4.63
2022-09-26T01:05:46.089Z,4.68
2022-09-26T01:08:15.517Z,3.28
2022-09-26T01:10:44.316Z,2.95
2022-09-26T01:13:11.418Z,3.20
2022-09-26T01:15:38.858Z,3.10
2022-09-26T01:18:07.458Z,3.00
2022-09-26T01:20:53.236Z,3.23
2022-09-26T01:23:37.900Z,3.45
2022-09-26T01:26:28.136Z,3.25
2022-09-26T01:29:22.604Z,3.67
2022-09-26T01:32:20.054Z,3.20
2022-09-26T01:35:01.481Z,2.70
2022-09-26T01:37:59.312Z,3.50
2022-09-26T01:40:45.872Z,3.03
2022-09-26T01:43:23.830Z,3.03
2022-09-26T01:45:59.051Z,3.13
2022-09-26T01:48:48.268Z,2.97
2022-09-26T01:51:23.009Z,3.58
2022-09-26T01:53:57.709Z,2.72
2022-09-26T01:56:27.720Z,2.80
2022-09-26T01:59:07.674Z,3.10
2022-09-26T02:01:39.228Z,2.97
2022-09-26T02:04:12.118Z,3.10
2022-09-26T02:07:01.029Z,3.20
2022-09-26T02:09:40.336Z,2.95
2022-09-26T02:12:10.220Z,3.30
2022-09-26T02:14:41.694Z,3.10
2022-09-26T02:17:12.909Z,3.40
2022-09-26T02:19:56.616Z,2.88
2022-09-26T02:22:27.243Z,2.92
2022-09-26T02:24:53.979Z,2.92
2022-09-26T02:27:21.196Z,3.30
2022-09-26T02:29:47.641Z,2.88
2022-09-26T02:32:27.917Z,2.70
2022-09-26T02:34:56.250Z,2.80
2022-09-26T02:37:23.702Z,2.90
2022-09-26T02:39:51.727Z,3.50
2022-09-26T02:42:25.408Z,2.90
2022-09-26T02:45:25.321Z,2.83
2022-09-26T02:48:09.897Z,2.63
2022-09-26T02:50:47.759Z,2.83
2022-09-26T02:53:22.045Z,3.38
2022-09-26T02:56:14.262Z,2.75
2022-09-26T02:59:09.111Z,3.08
2022-09-26T03:01:48.307Z,3.38
2022-09-26T03:04:47.093Z,3.10
2022-09-26T03:07:25.795Z,3.22
2022-09-26T03:09:53.125Z,3.93
2022-09-26T03:12:20.969Z,3.40
2022-09-26T03:14:49.574Z,3.47
2022-09-26T03:17:18.804Z,4.13
2022-09-26T03:19:59.630Z,4.05
2022-09-26T03:22:26.333Z,4.47
2022-09-26T03:24:52.795Z,4.35
2022-09-26T03:27:19.971Z,4.93
2022-09-26T03:29:46.407Z,4.88
2022-09-26T03:32:13.183Z,4.82
2022-09-26T03:34:39.795Z,5.78
2022-09-26T03:37:06.701Z,5.72
2022-09-26T03:39:33.097Z,5.50
2022-09-26T03:41:59.844Z,5.63
2022-09-26T03:44:26.290Z,6.47
2022-09-26T03:46:52.713Z,6.60
2022-09-26T03:49:19.169Z,6.28
2022-09-26T03:51:45.921Z,6.43
2022-09-26T03:54:13.143Z,7.45
2022-09-26T03:56:40.794Z,7.30
2022-09-26T03:59:08.017Z,6.78
2022-09-26T04:01:34.550Z,7.50
2022-09-26T04:04:01.445Z,7.28
2022-09-26T04:06:27.837Z,6.97
2022-09-26T04:08:54.298Z,7.28
2022-09-26T04:11:24.422Z,6.93
2022-09-26T04:13:53.567Z,7.28
2022-09-26T04:16:22.531Z,7.88
2022-09-26T04:18:49.805Z,7.43
2022-09-26T04:21:16.288Z,6.88
2022-09-26T04:23:43.820Z,8.07
2022-09-26T04:26:14.866Z,8.18
2022-09-26T04:28:42.954Z,7.63
2022-09-26T04:31:10.587Z,8.27
2022-09-26T04:33:39.651Z,7.53
2022-09-26T04:36:16.690Z,7.75
2022-09-26T04:38:43.289Z,7.80
2022-09-26T04:41:18.621Z,8.02
2022-09-26T04:43:45.714Z,7.15
2022-09-26T04:46:21.709Z,8.60
2022-09-26T04:48:53.607Z,8.45
2022-09-26T04:51:21.477Z,8.45
2022-09-26T04:53:48.666Z,8.10
2022-09-26T04:56:16.433Z,8.45
2022-09-26T04:58:44.065Z,8.85
2022-09-26T05:01:16.054Z,8.50
2022-09-26T05:03:42.595Z,8.50
2022-09-26T05:06:10.942Z,9.20
2022-09-26T05:08:41.328Z,9.02
2022-09-26T05:11:09.136Z,9.35
2022-09-26T05:13:37.940Z,8.27
2022-09-26T05:16:06.136Z,9.40
2022-09-26T05:18:33.576Z,8.98
2022-09-26T05:21:02.165Z,8.43
2022-09-26T05:23:47.157Z,8.63
2022-09-26T05:26:19.799Z,9.38
2022-09-26T05:28:49.204Z,8.82
2022-09-26T05:31:16.328Z,8.82
2022-09-26T05:33:44.292Z,8.98
2022-09-26T05:36:11.190Z,8.73
2022-09-26T05:38:37.854Z,7.68
2022-09-26T05:41:04.726Z,8.00
2022-09-26T05:43:35.690Z,7.50
2022-09-26T05:46:04.836Z,7.43
2022-09-26T05:48:34.148Z,7.60
2022-09-26T05:51:13.110Z,7.47
2022-09-26T05:53:40.538Z,8.30
2022-09-26T05:56:07.571Z,7.55
2022-09-26T05:58:36.178Z,7.10
2022-09-26T06:01:12.869Z,7.60
2022-09-26T06:03:42.588Z,7.15
2022-09-26T06:06:12.365Z,5.95
2022-09-26T06:08:39.877Z,6.13
2022-09-26T06:11:12.828Z,5.53
2022-09-26T06:13:40.419Z,5.32
2022-09-26T06:16:10.492Z,5.30
2022-09-26T06:18:38.504Z,5.28
2022-09-26T06:21:06.183Z,4.80
2022-09-26T06:23:34.233Z,3.67
2022-09-26T06:26:02.131Z,4.50
2022-09-26T06:28:29.491Z,4.82
2022-09-26T06:30:56.940Z,4.35
2022-09-26T06:33:23.743Z,3.80
2022-09-26T06:36:10.177Z,3.67
2022-09-26T06:38:37.334Z,4.03
2022-09-26T06:41:04.475Z,4.13
2022-09-26T06:43:31.341Z,4.00
2022-09-26T06:45:57.777Z,4.32
2022-09-26T06:48:25.512Z,4.25
2022-09-26T06:50:54.015Z,3.97
2022-09-26T06:53:21.069Z,3.75
2022-09-26T06:55:47.868Z,3.42
2022-09-26T06:58:14.333Z,3.50
2022-09-26T07:00:40.985Z,3.78
2022-09-26T07:03:08.179Z,3.28
2022-09-26T07:05:35.001Z,3.50
2022-09-26T07:08:02.376Z,2.95
2022-09-26T07:10:30.210Z,3.30
2022-09-26T07:13:04.569Z,3.10
2022-09-26T07:15:33.340Z,2.30
2022-09-26T07:18:02.542Z,3.10
2022-09-26T07:20:36.551Z,2.63
2022-09-26T07:23:04.669Z,3.67
2022-09-26T07:25:32.150Z,2.55
2022-09-26T07:27:59.473Z,2.95
2022-09-26T07:30:26.435Z,2.72
2022-09-26T07:32:52.898Z,2.53
2022-09-26T07:35:19.328Z,2.22
2022-09-26T07:37:46.185Z,2.13
2022-09-26T07:40:12.753Z,2.75
2022-09-26T07:42:39.448Z,2.50
2022-09-26T07:45:29.041Z,2.08
2022-09-26T07:48:11.125Z,2.45
2022-09-26T07:50:37.974Z,1.92
2022-09-26T07:53:04.405Z,2.03
2022-09-26T07:55:30.876Z,2.45
2022-09-26T07:57:57.844Z,2.55
2022-09-26T08:00:26.271Z,1.80
2022-09-26T08:02:52.779Z,2.20
2022-09-26T08:05:20.058Z,2.33
2022-09-26T08:07:48.473Z,2.40
2022-09-26T08:10:21.978Z,2.60
2022-09-26T08:12:48.645Z,2.53
2022-09-26T08:15:15.900Z,2.17
2022-09-26T08:17:43.326Z,2.15
2022-09-26T08:20:10.899Z,1.98
2022-09-26T08:22:37.449Z,1.80
2022-09-26T08:25:06.433Z,1.85
2022-09-26T08:27:34.522Z,1.92
2022-09-26T08:30:04.159Z,1.80
2022-09-26T08:34:58.600Z,1.30
2022-09-26T08:37:28.713Z,1.50
2022-09-26T08:39:56.255Z,1.65
2022-09-26T08:42:34.307Z,1.50
2022-09-26T08:46:01.636Z,1.70
2022-09-26T08:48:39.352Z,1.90
2022-09-26T08:51:40.280Z,1.75
2022-09-26T08:54:12.867Z,1.70
2022-09-26T08:56:45.598Z,1.60
2022-09-26T08:59:23.078Z,1.88
2022-09-26T09:01:52.319Z,1.30
2022-09-26T09:04:40.012Z,1.88
2022-09-26T09:07:17.262Z,1.67
2022-09-26T09:09:43.939Z,1.65
2022-09-26T09:12:32.307Z,1.58
2022-09-26T09:15:26.116Z,1.90
2022-09-26T09:18:20.647Z,1.60
2022-09-26T09:20:59.150Z,1.48
2022-09-26T09:23:41.826Z,2.10
2022-09-26T09:29:37.750Z,2.22
2022-09-26T09:32:05.751Z,1.90
2022-09-26T09:34:39.496Z,2.10
2022-09-26T09:37:14.661Z,2.25
2022-09-26T09:39:44.569Z,2.00
2022-09-26T09:42:36.107Z,1.90
2022-09-26T09:45:05.341Z,2.40
2022-09-26T09:47:37.410Z,2.20
2022-09-26T09:50:35.139Z,1.90
2022-09-26T09:53:26.542Z,2.17
2022-09-26T09:56:08.998Z,2.17
2022-09-26T09:58:50.096Z,2.15
2022-09-26T10:01:31.743Z,1.80
2022-09-26T10:04:46.500Z,2.08
2022-09-26T10:07:13.151Z,2.10
2022-09-26T10:09:41.806Z,1.95
2022-09-26T10:12:17.136Z,2.23
2022-09-26T10:14:55.050Z,2.22
2022-09-26T10:17:23.396Z,2.25
2022-09-26T10:19:50.005Z,2.35
2022-09-26T10:22:29.210Z,2.33
2022-09-26T10:25:08.624Z,2.38
2022-09-26T10:30:18.426Z,1.90
2022-09-26T10:32:48.580Z,2.03
2022-09-26T10:35:24.218Z,2.03
2022-09-26T10:38:06.014Z,2.10
2022-09-26T10:40:48.343Z,2.63
2022-09-26T10:43:30.480Z,2.03
2022-09-26T10:46:11.010Z,2.05
2022-09-26T10:48:51.672Z,2.15
2022-09-26T10:51:28.093Z,2.05
2022-09-26T10:54:04.793Z,2.20
2022-09-26T10:56:38.120Z,1.70
2022-09-26T10:59:08.875Z,2.42
2022-09-26T11:01:42.780Z,2.85
2022-09-26T11:04:36.434Z,2.30
2022-09-26T11:07:05.833Z,2.00
2022-09-26T11:11:58.907Z,2.10
2022-09-26T11:14:31.173Z,1.80
2022-09-26T11:16:58.152Z,1.60
2022-09-26T11:19:33.003Z,1.80
2022-09-26T11:22:11.849Z,1.75
2022-09-26T11:25:04.412Z,1.63
2022-09-26T11:27:49.054Z,1.42
2022-09-26T11:30:20.633Z,1.55
2022-09-26T11:32:49.855Z,1.50
2022-09-26T11:35:44.163Z,1.67
2022-09-26T11:38:39.046Z,1.52
2022-09-26T11:41:39.448Z,1.80
2022-09-26T11:44:31.083Z,1.58
2022-09-26T11:47:25.720Z,1.70
2022-09-26T11:50:19.892Z,1.45
2022-09-26T11:53:11.109Z,1.60
2022-09-26T11:55:57.133Z,1.80
2022-09-26T11:58:46.946Z,1.85
2022-09-26T12:01:16.438Z,1.77
2022-09-26T12:04:11.329Z,1.83
2022-09-26T12:06:43.649Z,1.35
2022-09-26T12:09:34.846Z,1.50
2022-09-26T12:12:35.901Z,1.55
2022-09-26T12:15:33.903Z,1.48
2022-09-26T12:18:43.497Z,1.23
2022-09-26T12:21:26.020Z,1.48
2022-09-26T12:24:13.989Z,1.23
2022-09-26T12:26:53.473Z,1.25
2022-09-26T12:29:45.488Z,1.40
2022-09-26T12:32:33.661Z,1.20
2022-09-26T12:35:20.352Z,1.52
2022-09-26T12:38:15.633Z,1.10
2022-09-26T12:40:52.039Z,1.10
2022-09-26T12:43:44.718Z,1.40
2022-09-26T12:46:47.046Z,1.50
2022-09-26T12:49:44.953Z,1.50
2022-09-26T12:52:39.181Z,1.02
2022-09-26T12:55:27.298Z,1.10
2022-09-26T12:58:19.224Z,1.92
2022-09-26T13:01:11.779Z,1.20
2022-09-26T13:03:49.621Z,1.30
2022-09-26T13:07:18.403Z,1.80
2022-09-26T13:09:58.906Z,1.52
2022-09-26T13:12:45.654Z,1.80
2022-09-26T13:15:24.214Z,2.42
2022-09-26T13:18:00.703Z,2.00
2022-09-26T13:20:32.029Z,1.65
2022-09-26T13:23:34.844Z,2.22
2022-09-26T13:26:09.528Z,2.05
2022-09-26T13:29:23.255Z,2.10
2022-09-26T13:32:29.031Z,2.00
2022-09-26T13:35:25.907Z,1.98
2022-09-26T13:38:19.476Z,1.60
2022-09-26T13:41:10.889Z,1.80
2022-09-26T13:44:19.214Z,2.25
2022-09-26T13:47:04.121Z,2.03
2022-09-26T13:49:51.102Z,2.03
2022-09-26T13:52:34.105Z,2.13
2022-09-26T13:55:10.650Z,2.45
2022-09-26T13:58:02.997Z,2.60
2022-09-26T14:00:38.193Z,2.83
2022-09-26T14:03:10.338Z,3.10
2022-09-26T14:05:46.438Z,3.70
2022-09-26T14:08:44.073Z,3.42
2022-09-26T14:11:29.742Z,3.97
2022-09-26T14:14:17.630Z,3.42
2022-09-26T14:16:45.843Z,4.22
2022-09-26T14:19:42.757Z,3.63
2022-09-26T14:22:20.170Z,4.93
2022-09-26T14:24:53.400Z,4.38
2022-09-26T14:27:37.231Z,4.47
2022-09-26T14:30:27.352Z,4.07
2022-09-26T14:33:01.969Z,4.32
2022-09-26T14:35:33.824Z,3.45
2022-09-26T14:38:15.758Z,3.05
2022-09-26T14:40:55.668Z,3.05
2022-09-26T14:43:24.742Z,3.40
2022-09-26T14:46:07.906Z,3.60
2022-09-26T14:48:41.354Z,3.25
2022-09-26T14:51:10.989Z,2.03
2022-09-26T14:56:29.892Z,2.38
2022-09-26T14:59:24.648Z,2.92
2022-09-26T15:02:11.853Z,3.22
2022-09-26T15:04:38.941Z,3.50
2022-09-26T15:07:16.106Z,3.25
2022-09-26T15:09:44.434Z,3.25
2022-09-26T15:12:18.015Z,4.82
2022-09-26T15:14:51.913Z,2.30
2022-09-26T15:17:40.581Z,2.20
2022-09-26T15:20:13.696Z,1.70
2022-09-26T15:22:42.440Z,2.08
2022-09-26T15:25:22.570Z,2.33
2022-09-26T15:27:56.067Z,2.25
2022-09-26T15:30:33.450Z,2.47
2022-09-26T15:33:04.025Z,2.70
2022-09-26T15:35:32.056Z,2.78
2022-09-26T15:38:08.426Z,2.67
2022-09-26T15:40:34.977Z,2.42
2022-09-26T15:43:12.239Z,2.78
2022-09-26T15:45:58.000Z,2.40
2022-09-26T15:48:34.109Z,2.53
2022-09-26T15:51:07.361Z,2.60
2022-09-26T15:53:36.492Z,2.65
2022-09-26T15:56:16.665Z,2.53
2022-09-26T15:58:48.297Z,2.50
2022-09-26T16:01:18.633Z,2.47
2022-09-26T16:03:59.106Z,2.60
2022-09-26T16:06:25.558Z,2.90
2022-09-26T16:09:00.772Z,3.40
2022-09-26T16:11:28.372Z,3.13
2022-09-26T16:13:56.542Z,3.45
2022-09-26T16:16:31.910Z,2.53
2022-09-26T16:19:03.582Z,3.35
2022-09-26T16:21:33.988Z,3.20
2022-09-26T16:24:22.411Z,2.78
2022-09-26T16:26:51.172Z,3.72
2022-09-26T16:29:35.712Z,3.30
2022-09-26T16:32:04.613Z,3.50
2022-09-26T16:34:32.005Z,4.63
2022-09-26T16:36:58.657Z,3.05
2022-09-26T16:39:30.261Z,3.70
2022-09-26T16:42:05.649Z,2.33
2022-09-26T16:44:36.878Z,2.63
2022-09-26T16:47:25.660Z,2.70
2022-09-26T16:49:52.224Z,2.40
2022-09-26T16:52:26.680Z,2.53
2022-09-26T16:54:58.715Z,2.40
2022-09-26T16:57:38.121Z,2.90
2022-09-26T17:00:33.209Z,2.83
2022-09-26T17:02:59.795Z,3.17
2022-09-26T17:05:26.433Z,2.88
2022-09-26T17:07:55.985Z,4.43
2022-09-26T17:12:51.480Z,4.05
2022-09-26T17:15:23.942Z,3.35
2022-09-26T17:17:53.432Z,2.70
2022-09-26T17:20:20.736Z,2.58
2022-09-26T17:22:47.200Z,2.50
2022-09-26T17:25:13.923Z,2.58
2022-09-26T17:27:42.556Z,1.98
2022-09-26T17:30:18.168Z,2.10
2022-09-26T17:32:50.875Z,2.50
2022-09-26T17:35:29.298Z,2.38
2022-09-26T17:37:56.080Z,2.33
2022-09-26T17:40:26.149Z,2.30
2022-09-26T17:42:57.545Z,2.13
2022-09-26T17:45:33.995Z,1.95
2022-09-26T17:48:19.262Z,2.17
2022-09-26T17:50:46.738Z,2.83
2022-09-26T17:53:20.765Z,2.38
2022-09-26T17:55:48.414Z,2.22
2022-09-26T17:58:15.221Z,2.28
2022-09-26T18:00:43.543Z,2.22
2022-09-26T18:03:25.616Z,2.05
2022-09-26T18:05:53.110Z,2.20
2022-09-26T18:08:25.437Z,2.35
2022-09-26T18:10:56.794Z,2.22
2022-09-26T18:13:26.622Z,2.17
2022-09-26T18:15:54.838Z,2.60
2022-09-26T18:18:24.294Z,2.97
2022-09-26T18:20:53.100Z,2.42
2022-09-26T18:23:23.415Z,2.63
2022-09-26T18:25:52.559Z,3.20
2022-09-26T18:28:22.798Z,3.58
2022-09-26T18:30:57.801Z,4.78
2022-09-26T18:33:27.585Z,3.97
2022-09-26T18:35:54.380Z,3.83
2022-09-26T18:38:21.990Z,4.82
2022-09-26T18:40:58.478Z,5.15
2022-09-26T18:43:31.259Z,5.95
2022-09-26T18:45:59.073Z,3.60
2022-09-26T18:48:32.830Z,4.30
2022-09-26T18:51:00.245Z,4.55
2022-09-26T18:53:36.925Z,3.80
2022-09-26T18:56:29.327Z,3.00
2022-09-26T18:58:57.221Z,2.35
2022-09-26T19:01:34.254Z,2.33
2022-09-26T19:04:03.982Z,2.33
2022-09-26T19:09:07.569Z,2.83
2022-09-26T19:11:35.060Z,2.75
2022-09-26T19:14:12.651Z,2.60
2022-09-26T19:16:39.392Z,3.00
2022-09-26T19:19:05.901Z,2.10
2022-09-26T19:21:34.578Z,1.83
2022-09-26T19:24:06.611Z,2.33
2022-09-26T19:26:38.785Z,1.90
2022-09-26T19:29:12.065Z,1.73
2022-09-26T19:31:42.352Z,1.55
2022-09-26T19:34:17.376Z,1.75
2022-09-26T19:36:43.916Z,1.60
2022-09-26T19:39:15.189Z,1.55
2022-09-26T19:41:42.050Z,2.00
2022-09-26T19:44:08.529Z,1.67
2022-09-26T19:46:36.992Z,1.50
2022-09-26T19:49:05.137Z,1.55
2022-09-26T19:51:34.064Z,2.13
2022-09-26T19:54:06.441Z,1.70
2022-09-26T19:56:33.276Z,1.58
2022-09-26T19:59:00.221Z,1.42
2022-09-26T20:01:27.286Z,1.30
2022-09-26T20:03:53.822Z,1.40
2022-09-26T20:06:24.196Z,1.35
2022-09-26T20:08:53.772Z,1.23
2022-09-26T20:11:22.280Z,1.52
2022-09-26T20:14:07.304Z,2.15
2022-09-26T20:16:41.530Z,1.60
2022-09-26T20:19:21.234Z,2.47
2022-09-26T20:21:47.849Z,2.50
2022-09-26T20:24:18.773Z,2.10
2022-09-26T20:26:47.045Z,2.33
2022-09-26T20:29:15.669Z,2.78
2022-09-26T20:31:43.684Z,3.10
2022-09-26T20:34:15.875Z,3.85
2022-09-26T20:36:48.485Z,3.80
2022-09-26T20:39:23.286Z,3.92
2022-09-26T20:41:51.852Z,3.67
2022-09-26T20:44:26.867Z,3.33
2022-09-26T20:46:58.288Z,2.97
2022-09-26T20:49:35.291Z,2.58
2022-09-26T20:52:05.767Z,2.55
2022-09-26T20:54:34.117Z,2.92
2022-09-26T20:57:03.426Z,3.13
2022-09-26T20:59:30.074Z,3.08
2022-09-26T21:01:57.234Z,3.38
2022-09-26T21:04:30.907Z,3.03
2022-09-26T21:06:57.783Z,2.92
2022-09-26T21:09:24.282Z,3.72
2022-09-26T21:11:50.792Z,3.60
2022-09-26T21:14:18.199Z,3.42
2022-09-26T21:16:47.950Z,3.63
2022-09-26T21:19:19.717Z,4.03
2022-09-26T21:21:46.620Z,3.35
2022-09-26T21:24:24.818Z,3.22
2022-09-26T21:26:51.727Z,4.13
2022-09-26T21:29:18.417Z,3.22
2022-09-26T21:31:49.026Z,3.95
2022-09-26T21:34:23.041Z,3.53
2022-09-26T21:36:51.588Z,4.00
2022-09-26T21:39:19.497Z,4.57
2022-09-26T21:41:52.578Z,4.43
2022-09-26T21:44:24.518Z,5.75
2022-09-26T21:46:51.596Z,5.63
2022-09-26T21:49:18.538Z,5.55
2022-09-26T21:51:50.046Z,6.00
2022-09-26T21:54:29.025Z,5.57
2022-09-26T21:57:02.972Z,6.05
2022-09-26T21:59:29.922Z,5.88
2022-09-26T22:01:56.539Z,6.13
2022-09-26T22:04:23.186Z,5.45
2022-09-26T22:06:49.685Z,5.80
2022-09-26T22:09:16.285Z,5.25
2022-09-26T22:11:42.865Z,5.10
2022-09-26T22:14:09.312Z,5.78
2022-09-26T22:16:35.991Z,6.47
2022-09-26T22:19:04.143Z,6.80
2022-09-26T22:21:31.150Z,6.65
2022-09-26T22:23:57.797Z,6.13
2022-09-26T22:26:24.369Z,7.03
2022-09-26T22:28:50.877Z,7.70
2022-09-26T22:31:17.736Z,7.00
2022-09-26T22:33:44.601Z,7.03
2022-09-26T22:36:11.787Z,6.95
2022-09-26T22:38:39.137Z,6.30
2022-09-26T22:41:06.741Z,5.50
2022-09-26T22:43:34.525Z,4.95
2022-09-26T22:46:07.519Z,4.80
2022-09-26T22:48:42.685Z,3.88
2022-09-26T22:51:09.776Z,3.05
2022-09-26T22:53:38.341Z,3.08
2022-09-26T22:56:06.623Z,3.00
2022-09-26T22:58:37.084Z,2.55
2022-09-26T23:01:09.249Z,3.65
2022-09-26T23:03:36.402Z,3.00
2022-09-26T23:06:04.241Z,3.60
2022-09-26T23:08:32.249Z,3.50
2022-09-26T23:10:58.786Z,4.13
2022-09-26T23:13:26.659Z,4.10
2022-09-26T23:15:53.754Z,3.97
2022-09-26T23:18:20.566Z,3.67
2022-09-26T23:20:47.156Z,4.20
2022-09-26T23:23:14.266Z,4.05
2022-09-26T23:25:49.206Z,4.38
2022-09-26T23:28:16.849Z,3.75
2022-09-26T23:30:44.149Z,4.22
2022-09-26T23:33:10.821Z,4.07
2022-09-26T23:35:37.404Z,4.13
2022-09-26T23:38:05.377Z,4.28
2022-09-26T23:40:32.537Z,4.28
2022-09-26T23:42:59.087Z,4.63
2022-09-26T23:45:26.794Z,4.15
2022-09-26T23:47:53.370Z,3.58
2022-09-26T23:50:20.330Z,3.88
2022-09-26T23:52:46.819Z,3.97
2022-09-26T23:55:13.910Z,3.70
2022-09-26T23:57:40.702Z,3.47
